LTCN

Kahramanmaraş Airport

Kahramanmaraş, Turkey
TAF LTCN 251640Z 2518/2603 29012KT CAVOK
Issued Valid From Valid To
Sep-25 @ 16:40 UTC
(an hour ago)
Sep-25 @ 18:00 UTC
(in 19 minutes)
Sep-26 @ 03:00 UTC
(in 9 hours)
Sep-25 @ 18:00 to Sep-26 @ 03:00
TAF LTCN 251640Z 2518/2603 29012KT CAVOK
Wind Visibility Clouds Conditions
290° at 12 knots 10,000+ meters
  • No significant clouds
TAF LTCN 251640Z 2518/2603 29012KT CAVOK
Issued Sep-25 @ 16:40 UTC
(an hour ago)
Valid From Sep-25 @ 18:00 UTC
(in 19 minutes)
Valid To Sep-26 @ 03:00 UTC
(in 9 hours)
Sep-25 @ 18:00 - Sep-26 @ 03:00
Wind Visibility
290° at 12 knots 10,000+ meters
Clouds
  • No significant clouds
Conditions